Wooster, Ohio
Current Conditions -  °F | °C
As of 1:56 AM on Monday 22 Dec 2014 (Local Time) from KBJJ Reporting Station
Haze Haze  
Wind Chill: 16°   Ceiling: Unl
Heat Index: 22°   Visibility: 6mi
Dew Point: 18°   Wind: 5mph
Humidity: 85%   Direction: 90°E
Pressure: 30.13"   Gusts: NA
Location:  40.81°N, 81.93°W
Report Text: KBJJ 220656Z AUTO 09004KT 6SM BR CLR M06/M08 A3013 RMK AO2 SLP217 T10561078 TSNO
Loading
Personal Weather Stations






























Interactive Weather Map New forecast layout! Learn more

10-Day Weather Forecast

Advertisements
Track Severe Weather on mobile